Terminal Aerodrome Forecast
Issued by NWS Duluth, MN

Home | Current Version | Previous Version | Text Only | Print | Product List | Glossary On
Versions: 1 2 3 4 5 6 7 8 9 10 11 12 13
797
FTUS43 KDLH 031134
TAFINL
TAF
KINL 031134Z 0312/0412 25010KT P6SM BKN090 WS015/27045KT
     FM031400 30013G20KT P6SM SCT090 BKN150
     FM031600 33017G25KT P6SM SCT100
     FM040200 36007KT P6SM SKC=

USA.gov is the U.S. government's official web portal to all federal, state and local government web resources and services.